Latest Weather Observations for Noonamah

IDD60801

Issued at 5:31 pm CST Monday 25 September 2017 (issued every 30 minutes, with the page automatically refreshed every 10 minutes)

About weather observations | Map of weather stations | Latest weather observations for NT | Other Formats
Station Details ID: 014314 Name: NOONAMAH AIRSTRIP Lat: -12.61 Lon: 131.05 Height: 17.5 m
Data from the previous 72 hours. | See also: Recent months at Noonamah
Date/Time
CST
Temp
°C
App
Temp
°C
Dew
Point
°C
Rel
Hum
%
Delta-T
°C
Wind Press
QNH
hPa
Press
MSL
hPa
Rain since
9am
mm
Dir  Spd
km/h
Gust
km/h
Spd
kts
Gust
kts
25/05:30pm 30.7 32.9 21.2 57 6.4 W 11 17 6 9 1008.4 1008.2 0.0
25/05:00pm 32.1 33.8 21.6 53 7.1 NW 15 24 8 13 1008.2 1008.0 0.0
25/04:30pm 33.3 35.0 22.4 52 7.5 NW 17 28 9 15 1008.1 1007.9 0.0
25/04:00pm 33.0 34.0 22.1 52 7.4 NW 20 28 11 15 1008.0 1007.8 0.0
25/03:30pm 34.4 35.6 22.1 48 8.4 NW 19 28 10 15 1007.8 1007.6 0.0
25/03:00pm 35.2 37.0 21.1 43 9.6 NW 13 22 7 12 1008.0 1007.8 0.0
25/02:30pm 34.9 37.1 21.2 45 9.3 WNW 11 22 6 12 1008.3 1008.1 0.0
25/02:00pm 34.9 36.8 18.9 39 10.5 N 7 13 4 7 1008.9 1008.7 0.0
25/01:30pm 36.0 37.9 18.6 36 11.4 NNE 6 11 3 6 1009.3 1009.1 0.0
25/01:00pm 34.6 36.9 19.4 40 10.0 SW 6 13 3 7 1010.0 1009.8 0.0
25/12:30pm 34.0 36.4 19.6 42 9.5 NNW 6 11 3 6 1010.6 1010.4 0.0
25/12:00pm 34.0 36.4 20.0 43 9.3 W 7 20 4 11 1011.1 1010.9 0.0
25/11:30am 33.7 36.0 18.6 40 9.9 W 4 13 2 7 1011.7 1011.5 0.0
25/11:00am 33.5 35.5 18.8 41 9.6 SSE 6 11 3 6 1012.2 1012.0 0.0
25/10:30am 32.7 34.7 18.8 43 9.1 N 6 11 3 6 1012.5 1012.4 0.0
25/10:00am 31.6 35.2 20.5 51 7.4 NW 2 7 1 4 1012.9 1012.8 0.0
25/09:30am 30.3 33.8 21.1 58 6.2 N 4 7 2 4 1013.1 1013.0 0.0
25/09:00am 29.7 33.6 21.1 60 5.7 NNE 2 6 1 3 1013.0 1012.9 0.0
25/08:30am 28.4 32.7 21.9 68 4.4 NW 2 6 1 3 1012.9 1012.8 0.0
25/08:00am 27.6 32.1 22.3 73 3.6 E 2 4 1 2 1012.7 1012.6 0.0
25/07:30am 26.5 31.6 22.6 79 2.6 CALM 0 0 0 0 1012.4 1012.3 0.0
25/07:00am 25.2 29.2 22.1 83 2.1 NNE 4 6 2 3 1011.9 1011.7 0.0
25/06:30am 25.5 29.5 22.0 81 2.3 NE 4 4 2 2 1011.7 1011.5 0.0
25/06:00am 25.8 30.6 22.1 80 2.5 CALM 0 0 0 0 1011.3 1011.1 0.0
25/05:30am 26.0 30.9 22.3 80 2.5 CALM 0 0 0 0 1011.0 1010.8 0.0
25/05:00am 26.0 30.9 22.3 80 2.5 CALM 0 0 0 0 1010.8 1010.6 0.0
25/04:30am 25.8 30.6 22.1 80 2.5 CALM 0 2 0 1 1010.5 1010.3 0.0
25/04:00am 25.8 30.2 22.1 80 2.5 ENE 2 6 1 3 1010.5 1010.3 0.0
25/03:30am 26.0 30.8 22.1 79 2.6 CALM 0 0 0 0 1010.4 1010.2 0.0
25/03:00am 26.0 30.5 22.3 80 2.5 NNW 2 4 1 2 1010.5 1010.3 0.0
25/02:30am 26.1 30.2 22.2 79 2.6 N 4 6 2 3 1010.4 1010.2 0.0
25/02:00am 26.1 30.6 22.2 79 2.6 NNE 2 4 1 2 1010.5 1010.3 0.0
25/01:30am 26.6 30.8 22.4 78 2.8 N 4 6 2 3 1010.6 1010.4 0.0
25/01:00am 26.9 31.1 22.5 77 3.0 N 4 6 2 3 1010.9 1010.7 0.0
25/12:30am 27.0 30.8 22.4 76 3.1 N 6 9 3 5 1011.0 1010.8 0.0
25/12:00am 26.9 30.8 21.9 74 3.4 N 4 6 2 3 1011.1 1010.9 0.0
 
Date/Time
CST
Temp
°C
App
Temp
°C
Dew
Point
°C
Rel
Hum
%
Delta-T
°C
Wind Press
QNH
hPa
Press
MSL
hPa
Rain since
9am
mm
Dir  Spd
km/h
Gust
km/h
Spd
kts
Gust
kts
24/11:30pm 27.4 31.6 22.4 74 3.4 NNW 4 6 2 3 1011.2 1011.0 0.0
24/11:00pm 27.1 31.5 22.1 74 3.4 NNW 2 4 1 2 1011.1 1010.9 0.0
24/10:30pm 27.1 31.1 21.4 71 3.8 NNW 2 4 1 2 1011.1 1010.9 0.0
24/10:00pm 27.3 30.7 20.9 68 4.2 N 4 6 2 3 1011.1 1010.9 0.0
24/09:30pm 27.5 31.1 20.6 66 4.5 NNW 2 4 1 2 1010.9 1010.7 0.0
24/09:00pm 27.9 31.6 20.7 65 4.8 NNW 2 6 1 3 1010.7 1010.5 0.0
24/08:30pm 28.1 30.9 20.4 63 5.1 NNW 6 9 3 5 1010.2 1010.0 0.0
24/08:00pm 28.5 31.0 20.2 60 5.5 NW 7 13 4 7 1009.9 1009.7 0.0
24/07:30pm 28.9 30.8 19.8 58 6.0 NNW 9 15 5 8 1009.4 1009.2 0.0
24/07:00pm 29.6 31.0 19.6 55 6.5 NNW 11 17 6 9 1009.2 1009.0 0.0
24/06:30pm 31.4 31.6 15.8 39 9.7 NNW 9 17 5 9 1008.6 1008.4 0.0
24/06:00pm 32.7 32.5 14.8 34 11.0 N 9 15 5 8 1008.1 1007.9 0.0
24/05:30pm 33.7 33.0 14.2 30 12.0 N 11 19 6 10 1007.8 1007.6 0.0
24/05:00pm 33.9 34.3 17.2 37 10.7 N 11 19 6 10 1007.6 1007.4 0.0
24/04:30pm 34.4 34.6 16.7 34 11.3 N 11 19 6 10 1007.6 1007.4 0.0
24/04:00pm 35.1 35.1 18.2 36 11.0 NNW 15 24 8 13 1007.7 1007.5 0.0
24/03:30pm 35.1 35.7 19.5 40 10.4 N 15 24 8 13 1007.9 1007.7 0.0
24/03:00pm 35.7 36.8 19.6 39 10.7 NNW 13 24 7 13 1008.1 1007.9 0.0
24/02:30pm 34.9 35.4 20.8 43 9.5 NW 19 33 10 18 1008.4 1008.2 0.0
24/02:00pm 34.7 35.3 21.0 44 9.3 NW 19 30 10 16 1008.6 1008.4 0.0
24/01:30pm 37.1 38.2 18.1 32 12.4 NNW 9 20 5 11 1009.1 1008.9 0.0
24/01:00pm 35.6 35.7 16.4 32 12.2 NNE 11 17 6 9 1009.6 1009.4 0.0
24/12:30pm 34.8 34.9 16.6 33 11.6 NNE 11 19 6 10 1010.2 1010.0 0.0
24/12:00pm 34.9 36.8 17.6 35 11.2 ESE 4 9 2 5 1010.7 1010.5 0.0
24/11:30am 33.8 34.1 17.1 37 10.7 NNE 11 17 6 9 1011.1 1010.9 0.0
24/11:00am 33.0 34.8 18.4 42 9.5 NE 6 13 3 7 1011.7 1011.5 0.0
24/10:30am 32.3 34.3 19.2 46 8.6 N 7 13 4 7 1012.0 1011.8 0.0
24/10:00am 31.2 34.5 19.9 51 7.5 NNE 2 9 1 5 1012.5 1012.4 0.0
24/09:30am 30.8 34.5 20.7 55 6.7 WNW 2 7 1 4 1012.8 1012.7 0.0
24/09:00am 29.6 33.0 21.0 60 5.7 NNE 4 7 2 4 1012.9 1012.8 0.0
24/08:30am 28.0 32.2 21.8 69 4.2 NNE 2 6 1 3 1012.9 1012.8 0.0
24/08:00am 26.7 31.3 21.7 74 3.3 CALM 0 0 0 0 1012.7 1012.6 0.0
24/07:30am 25.0 29.9 22.3 85 1.8 CALM 0 0 0 0 1012.4 1012.3 0.0
24/07:00am 22.9 27.2 21.2 90 1.1 CALM 0 0 0 0 1012.0 1011.8 0.0
24/06:30am 23.1 27.4 21.2 89 1.2 CALM 0 0 0 0 1011.8 1011.6 0.0
24/06:00am 23.1 27.5 21.4 90 1.1 CALM 0 0 0 0 1011.7 1011.5 0.0
24/05:30am 23.5 27.8 21.2 87 1.5 CALM 0 0 0 0 1011.5 1011.3 0.0
24/05:00am 24.0 28.8 22.1 89 1.3 CALM 0 0 0 0 1011.4 1011.2 0.0
24/04:30am 24.1 28.9 22.2 89 1.3 CALM 0 0 0 0 1011.4 1011.2 0.0
24/04:00am 23.7 27.8 20.8 84 1.9 CALM 0 0 0 0 1011.2 1011.0 0.0
24/03:30am 24.2 28.6 21.3 84 1.9 CALM 0 0 0 0 1011.3 1011.1 0.0
24/03:00am 24.6 29.2 21.7 84 1.9 CALM 0 0 0 0 1011.3 1011.1 0.0
24/02:30am 24.9 29.5 21.8 83 2.1 CALM 0 0 0 0 1011.3 1011.1 0.0
24/02:00am 25.5 30.4 22.4 83 2.1 CALM 0 0 0 0 1011.4 1011.2 0.0
24/01:30am 26.1 31.3 22.8 82 2.2 CALM 0 0 0 0 1011.6 1011.4 0.0
24/01:00am 26.5 31.2 23.4 83 2.1 NNW 4 7 2 4 1011.8 1011.6 0.0
24/12:30am 26.7 31.4 23.4 82 2.3 NNW 4 6 2 3 1011.8 1011.6 0.0
24/12:00am 26.9 31.5 23.2 80 2.5 NNW 4 7 2 4 1012.0 1011.8 0.0
 
Date/Time
CST
Temp
°C
App
Temp
°C
Dew
Point
°C
Rel
Hum
%
Delta-T
°C
Wind Press
QNH
hPa
Press
MSL
hPa
Rain since
9am
mm
Dir  Spd
km/h
Gust
km/h
Spd
kts
Gust
kts
23/11:30pm 27.3 31.9 23.1 78 2.9 NNW 4 6 2 3 1012.3 1012.2 0.0
23/11:00pm 27.5 31.5 22.7 75 3.3 NW 6 13 3 7 1012.3 1012.2 0.0
23/10:30pm 27.2 30.7 21.9 73 3.6 NNW 6 9 3 5 1012.2 1012.0 0.0
23/10:00pm 27.4 30.6 20.5 66 4.5 N 4 4 2 2 1012.3 1012.2 0.0
23/09:30pm 27.9 31.2 20.7 65 4.8 NNW 4 7 2 4 1012.0 1011.8 0.0
23/09:00pm 27.9 31.3 19.4 60 5.5 CALM 0 0 0 0 1011.4 1011.2 0.0
23/08:30pm 28.9 32.4 19.5 57 6.1 CALM 0 0 0 0 1011.0 1010.8 0.0
23/08:00pm 29.7 31.8 19.4 54 6.7 N 7 11 4 6 1010.8 1010.6 0.0
23/07:30pm 30.2 33.3 19.6 53 6.9 N 2 7 1 4 1010.5 1010.3 0.0
23/07:00pm 30.4 33.1 20.3 54 6.7 NW 6 11 3 6 1010.1 1009.9 0.0
23/06:30pm 31.3 34.3 21.2 55 6.8 WNW 7 17 4 9 1009.6 1009.4 0.0
23/06:00pm 32.5 34.1 20.7 49 7.9 WNW 13 20 7 11 1009.3 1009.1 0.0
23/05:30pm 33.5 34.3 19.9 44 9.0 W 15 24 8 13 1009.0 1008.8 0.0
23/05:00pm 34.2 34.5 18.7 40 10.1 WNW 15 22 8 12 1008.6 1008.4 0.0
23/04:30pm 35.0 35.2 18.6 38 10.8 NW 15 24 8 13 1008.4 1008.2 0.0
23/04:00pm 35.8 35.9 18.4 35 11.4 NW 15 26 8 14 1008.3 1008.1 0.0
23/03:30pm 35.6 37.6 19.9 39 10.5 NNW 9 17 5 9 1008.5 1008.3 0.0
23/03:00pm 34.6 36.5 20.6 44 9.4 WNW 11 19 6 10 1009.0 1008.8 0.0
23/02:30pm 35.7 38.5 20.8 42 10.1 N 7 17 4 9 1009.4 1009.2 0.0
23/02:00pm 37.0 38.1 16.5 29 13.1 NW 6 11 3 6 1009.7 1009.5 0.0
23/01:30pm 36.0 36.9 16.7 31 12.4 NNW 7 15 4 8 1010.1 1009.9 0.0
23/01:00pm 35.8 36.7 16.5 31 12.3 ESE 7 22 4 12 1010.7 1010.5 0.0
23/12:30pm 35.4 37.1 18.0 35 11.3 ENE 6 11 3 6 1011.2 1011.0 0.0
23/12:00pm 34.3 35.4 17.1 36 11.0 ENE 7 11 4 6 1012.0 1011.8 0.0
23/11:30am 33.9 35.4 18.8 41 9.9 NE 9 20 5 11 1012.5 1012.4 0.0
23/11:00am 33.2 35.3 18.9 42 9.4 NE 6 13 3 7 1013.0 1012.9 0.0
23/10:30am 32.3 34.6 19.9 48 8.2 NE 7 15 4 8 1013.5 1013.4 0.0
23/10:00am 31.8 34.5 20.7 51 7.4 ENE 7 13 4 7 1013.6 1013.5 0.0
23/09:30am 30.5 35.0 21.6 59 6.0 CALM 0 6 0 3 1013.9 1013.8 0.0
23/09:00am 29.3 33.9 22.5 67 4.6 S 2 6 1 3 1013.7 1013.6 0.0
23/08:30am 28.6 33.5 23.1 72 3.8 ESE 2 6 1 3 1013.6 1013.5 0.0
23/08:00am 27.1 32.0 22.3 75 3.2 CALM 0 0 0 0 1013.5 1013.4 0.0
23/07:30am 25.0 29.5 21.5 81 2.3 CALM 0 0 0 0 1013.3 1013.2 0.0
23/07:00am 23.8 28.2 21.3 86 1.6 CALM 0 0 0 0 1012.9 1012.8 0.0
23/06:30am 23.3 27.4 20.8 86 1.6 CALM 0 0 0 0 1012.7 1012.6 0.0
23/06:00am 23.5 27.5 20.6 84 1.9 CALM 0 0 0 0 1012.5 1012.4 0.0
23/05:30am 23.7 27.6 20.4 82 2.1 CALM 0 0 0 0 1012.3 1012.2 0.0
23/05:00am 24.1 28.3 21.0 83 2.0 CALM 0 0 0 0 1012.1 1011.9 0.0
23/04:30am 24.0 28.1 20.7 82 2.2 CALM 0 0 0 0 1011.8 1011.6 0.0
23/04:00am 24.5 28.7 21.0 81 2.3 CALM 0 0 0 0 1011.8 1011.6 0.0
23/03:30am 24.3 28.4 20.8 81 2.3 CALM 0 0 0 0 1011.9 1011.7 0.0
23/03:00am 24.0 27.9 20.3 80 2.4 CALM 0 0 0 0 1012.1 1011.9 0.0
23/02:30am 24.3 28.2 20.4 79 2.5 CALM 0 0 0 0 1012.1 1011.9 0.0
23/02:00am 24.5 28.3 20.2 77 2.8 CALM 0 0 0 0 1012.2 1012.0 0.0
23/01:30am 24.5 28.2 20.0 76 2.9 CALM 0 0 0 0 1012.2 1012.0 0.0
23/01:00am 24.8 28.4 19.8 74 3.2 CALM 0 0 0 0 1012.3 1012.2 0.0
23/12:30am 25.5 29.1 20.5 74 3.3 SE 2 4 1 2 1012.3 1012.2 0.0
23/12:00am 25.4 29.0 19.8 71 3.6 CALM 0 2 0 1 1012.5 1012.4 0.0
 
Date/Time
CST
Temp
°C
App
Temp
°C
Dew
Point
°C
Rel
Hum
%
Delta-T
°C
Wind Press
QNH
hPa
Press
MSL
hPa
Rain since
9am
mm
Dir  Spd
km/h
Gust
km/h
Spd
kts
Gust
kts
22/11:30pm 25.9 29.7 20.2 71 3.7 CALM 0 4 0 2 1012.5 1012.4 0.0
22/11:00pm 26.3 30.1 20.2 69 4.0 CALM 0 0 0 0 1012.4 1012.3 0.0
22/10:30pm 26.6 30.1 20.4 69 4.1 N 2 6 1 3 1012.4 1012.3 0.0
22/10:00pm 26.4 29.9 19.5 66 4.5 CALM 0 0 0 0 1012.5 1012.4 0.0
22/09:30pm 27.4 31.1 20.0 64 4.8 CALM 0 0 0 0 1012.2 1012.0 0.0
22/09:00pm 27.9 31.3 20.2 63 5.1 N 2 6 1 3 1012.1 1011.9 0.0
22/08:30pm 28.3 31.9 19.8 60 5.6 CALM 0 0 0 0 1011.7 1011.5 0.0
22/08:00pm 28.8 31.8 20.0 59 5.8 WNW 4 6 2 3 1011.2 1011.0 0.0
22/07:30pm 29.7 32.3 20.0 56 6.4 N 6 7 3 4 1010.7 1010.5 0.0
22/07:00pm 30.4 32.4 20.0 53 6.9 N 9 15 5 8 1010.4 1010.2 0.0
22/06:30pm 31.3 33.1 19.6 49 7.7 N 9 15 5 8 1009.8 1009.6 0.0
22/06:00pm 32.3 33.7 19.5 46 8.4 NNE 11 19 6 10 1009.2 1009.0 0.0

Other Formats:

Comma delimited format used in spreadsheet applications
http://www.bom.gov.au/fwo/IDD60801/IDD60801.94105.axf

JavaScript Object Notation format (JSON) in row-major order
http://www.bom.gov.au/fwo/IDD60801/IDD60801.94105.json